sensor_id;sensor_type;location;lat;lon;timestamp;P1;durP1;ratioP1;P2;durP2;ratioP2
68993;SDS011;56054;50.968;5.816;2023-01-30T05:40:32;15.80;;;7.70;;
68993;SDS011;56054;50.968;5.816;2023-01-30T05:43:52;18.63;;;9.87;;
68993;SDS011;56054;50.968;5.816;2023-01-30T05:46:59;17.30;;;9.43;;
68993;SDS011;56054;50.968;5.816;2023-01-30T05:50:25;16.43;;;8.03;;
68993;SDS011;56054;50.968;5.816;2023-01-30T05:53:32;15.03;;;8.67;;
68993;SDS011;56054;50.968;5.816;2023-01-30T05:56:56;11.87;;;6.83;;
68993;SDS011;56054;50.968;5.816;2023-01-30T06:00:09;17.33;;;8.80;;
68993;SDS011;56054;50.968;5.816;2023-01-30T06:03:17;17.80;;;9.40;;
68993;SDS011;56054;50.968;5.816;2023-01-30T06:06:29;16.77;;;9.03;;
68993;SDS011;56054;50.968;5.816;2023-01-30T06:09:43;17.27;;;9.53;;
68993;SDS011;56054;50.968;5.816;2023-01-30T06:13:01;17.90;;;8.10;;
68993;SDS011;56054;50.968;5.816;2023-01-30T06:16:25;17.53;;;10.03;;
68993;SDS011;56054;50.968;5.816;2023-01-30T06:23:38;17.17;;;8.40;;
68993;SDS011;56054;50.968;5.816;2023-01-30T06:26:51;16.23;;;9.07;;
68993;SDS011;56054;50.968;5.816;2023-01-30T06:30:01;15.30;;;7.90;;
68993;SDS011;56054;50.968;5.816;2023-01-30T06:33:09;15.20;;;9.10;;
68993;SDS011;56054;50.968;5.816;2023-01-30T06:36:43;13.77;;;7.50;;
68993;SDS011;56054;50.968;5.816;2023-01-30T06:40:50;14.97;;;8.47;;
68993;SDS011;56054;50.968;5.816;2023-01-30T06:44:49;12.80;;;7.47;;
68993;SDS011;56054;50.968;5.816;2023-01-30T06:48:34;14.33;;;8.10;;
68993;SDS011;56054;50.968;5.816;2023-01-30T06:55:23;17.73;;;8.53;;
68993;SDS011;56054;50.968;5.816;2023-01-30T06:58:45;13.90;;;8.27;;
68993;SDS011;56054;50.968;5.816;2023-01-30T07:01:52;16.40;;;8.20;;
68993;SDS011;56054;50.968;5.816;2023-01-30T07:05:07;15.00;;;9.27;;
68993;SDS011;56054;50.968;5.816;2023-01-30T07:08:42;14.27;;;8.00;;
68993;SDS011;56054;50.968;5.816;2023-01-30T07:11:52;13.07;;;8.40;;
68993;SDS011;56054;50.968;5.816;2023-01-30T07:15:04;17.00;;;9.37;;
68993;SDS011;56054;50.968;5.816;2023-01-30T07:18:12;14.13;;;9.07;;
68993;SDS011;56054;50.968;5.816;2023-01-30T07:21:45;14.40;;;7.60;;
68993;SDS011;56054;50.968;5.816;2023-01-30T07:24:57;13.10;;;8.03;;
68993;SDS011;56054;50.968;5.816;2023-01-30T07:28:04;20.93;;;8.50;;
68993;SDS011;56054;50.968;5.816;2023-01-30T07:31:16;15.77;;;8.53;;
68993;SDS011;56054;50.968;5.816;2023-01-30T07:34:28;14.70;;;6.17;;
68993;SDS011;56054;50.968;5.816;2023-01-30T07:37:43;16.67;;;8.87;;
68993;SDS011;56054;50.968;5.816;2023-01-30T07:41:03;20.07;;;8.03;;
68993;SDS011;56054;50.968;5.816;2023-01-30T07:44:11;14.17;;;7.50;;
68993;SDS011;56054;50.968;5.816;2023-01-30T07:47:19;12.53;;;7.00;;
68993;SDS011;56054;50.968;5.816;2023-01-30T07:50:34;13.27;;;7.63;;
68993;SDS011;56054;50.968;5.816;2023-01-30T07:53:42;18.43;;;6.83;;
68993;SDS011;56054;50.968;5.816;2023-01-30T07:56:49;14.60;;;8.03;;
68993;SDS011;56054;50.968;5.816;2023-01-30T07:59:56;16.87;;;8.33;;
68993;SDS011;56054;50.968;5.816;2023-01-30T08:06:42;21.97;;;8.63;;
68993;SDS011;56054;50.968;5.816;2023-01-30T08:09:49;16.47;;;7.87;;
68993;SDS011;56054;50.968;5.816;2023-01-30T08:12:57;18.43;;;7.97;;
68993;SDS011;56054;50.968;5.816;2023-01-30T08:16:08;17.83;;;7.77;;
68993;SDS011;56054;50.968;5.816;2023-01-30T08:19:15;10.70;;;6.13;;
68993;SDS011;56054;50.968;5.816;2023-01-30T08:22:36;17.83;;;7.53;;
68993;SDS011;56054;50.968;5.816;2023-01-30T08:25:44;12.57;;;6.13;;
68993;SDS011;56054;50.968;5.816;2023-01-30T08:28:52;18.50;;;7.60;;
68993;SDS011;56054;50.968;5.816;2023-01-30T08:32:06;16.37;;;7.23;;
68993;SDS011;56054;50.968;5.816;2023-01-30T08:35:22;16.47;;;7.20;;
68993;SDS011;56054;50.968;5.816;2023-01-30T08:38:32;16.67;;;7.47;;
68993;SDS011;56054;50.968;5.816;2023-01-30T08:41:42;13.27;;;6.17;;
68993;SDS011;56054;50.968;5.816;2023-01-30T08:44:52;18.87;;;7.77;;
68993;SDS011;56054;50.968;5.816;2023-01-30T08:52:49;17.57;;;6.13;;
68993;SDS011;56054;50.968;5.816;2023-01-30T08:55:55;16.63;;;6.13;;
68993;SDS011;56054;50.968;5.816;2023-01-30T08:59:07;14.73;;;6.40;;
68993;SDS011;56054;50.968;5.816;2023-01-30T09:02:14;16.53;;;5.47;;
68993;SDS011;56054;50.968;5.816;2023-01-30T09:05:22;13.90;;;4.53;;
68993;SDS011;56054;50.968;5.816;2023-01-30T09:08:30;12.77;;;4.40;;
68993;SDS011;56054;50.968;5.816;2023-01-30T09:11:37;14.63;;;3.77;;
68993;SDS011;56054;50.968;5.816;2023-01-30T09:14:47;12.87;;;3.30;;
68993;SDS011;56054;50.968;5.816;2023-01-30T09:17:54;11.53;;;2.73;;
68993;SDS011;56054;50.968;5.816;2023-01-30T09:21:08;12.57;;;3.40;;
68993;SDS011;56054;50.968;5.816;2023-01-30T09:24:22;8.87;;;2.97;;
68993;SDS011;56054;50.968;5.816;2023-01-30T09:27:32;14.40;;;3.07;;
68993;SDS011;56054;50.968;5.816;2023-01-30T09:30:48;10.00;;;2.80;;
68993;SDS011;56054;50.968;5.816;2023-01-30T09:33:55;14.83;;;3.27;;
68993;SDS011;56054;50.968;5.816;2023-01-30T09:37:07;12.43;;;3.30;;
68993;SDS011;56054;50.968;5.816;2023-01-30T09:40:22;14.90;;;3.10;;
68993;SDS011;56054;50.968;5.816;2023-01-30T09:47:11;9.67;;;2.27;;
68993;SDS011;56054;50.968;5.816;2023-01-30T09:54:36;12.40;;;2.57;;
68993;SDS011;56054;50.968;5.816;2023-01-30T09:58:04;12.70;;;3.53;;
68993;SDS011;56054;50.968;5.816;2023-01-30T10:01:26;12.97;;;3.33;;
68993;SDS011;56054;50.968;5.816;2023-01-30T10:04:53;8.37;;;2.53;;
68993;SDS011;56054;50.968;5.816;2023-01-30T10:11:52;14.47;;;3.00;;
68993;SDS011;56054;50.968;5.816;2023-01-30T10:22:17;11.23;;;2.63;;
68993;SDS011;56054;50.968;5.816;2023-01-30T10:25:49;13.23;;;2.80;;
68993;SDS011;56054;50.968;5.816;2023-01-30T10:29:12;23.50;;;3.27;;
68993;SDS011;56054;50.968;5.816;2023-01-30T10:32:31;11.00;;;2.17;;
68993;SDS011;56054;50.968;5.816;2023-01-30T10:35:50;11.13;;;3.53;;
68993;SDS011;56054;50.968;5.816;2023-01-30T10:42:48;16.37;;;2.93;;
68993;SDS011;56054;50.968;5.816;2023-01-30T10:50:16;17.90;;;2.83;;
68993;SDS011;56054;50.968;5.816;2023-01-30T10:53:38;12.50;;;2.60;;
68993;SDS011;56054;50.968;5.816;2023-01-30T11:03:53;17.27;;;3.40;;
68993;SDS011;56054;50.968;5.816;2023-01-30T11:07:06;11.70;;;2.37;;
68993;SDS011;56054;50.968;5.816;2023-01-30T11:10:22;15.03;;;2.10;;
68993;SDS011;56054;50.968;5.816;2023-01-30T11:13:59;14.23;;;2.50;;
68993;SDS011;56054;50.968;5.816;2023-01-30T11:17:34;11.20;;;1.73;;
68993;SDS011;56054;50.968;5.816;2023-01-30T11:20:50;13.13;;;2.27;;
68993;SDS011;56054;50.968;5.816;2023-01-30T11:24:13;17.93;;;2.33;;
68993;SDS011;56054;50.968;5.816;2023-01-30T11:27:32;8.90;;;1.90;;
68993;SDS011;56054;50.968;5.816;2023-01-30T11:30:49;14.07;;;2.10;;
68993;SDS011;56054;50.968;5.816;2023-01-30T11:34:27;22.40;;;2.17;;
68993;SDS011;56054;50.968;5.816;2023-01-30T11:41:32;15.50;;;1.97;;
68993;SDS011;56054;50.968;5.816;2023-01-30T11:45:09;8.03;;;1.30;;
68993;SDS011;56054;50.968;5.816;2023-01-30T11:48:24;16.07;;;1.83;;
68993;SDS011;56054;50.968;5.816;2023-01-30T11:51:35;15.80;;;2.00;;
68993;SDS011;56054;50.968;5.816;2023-01-30T11:54:48;16.73;;;2.00;;
68993;SDS011;56054;50.968;5.816;2023-01-30T11:58:20;10.17;;;1.33;;
68993;SDS011;56054;50.968;5.816;2023-01-30T12:01:29;9.20;;;1.73;;
68993;SDS011;56054;50.968;5.816;2023-01-30T12:04:49;12.67;;;2.13;;
68993;SDS011;56054;50.968;5.816;2023-01-30T12:08:12;12.33;;;1.53;;
68993;SDS011;56054;50.968;5.816;2023-01-30T12:18:28;15.70;;;1.70;;
68993;SDS011;56054;50.968;5.816;2023-01-30T12:25:14;14.40;;;2.00;;
68993;SDS011;56054;50.968;5.816;2023-01-30T12:29:31;9.90;;;1.50;;
68993;SDS011;56054;50.968;5.816;2023-01-30T12:32:13;17.23;;;1.67;;
68993;SDS011;56054;50.968;5.816;2023-01-30T12:35:40;15.80;;;1.70;;
68993;SDS011;56054;50.968;5.816;2023-01-30T12:50:03;12.13;;;1.83;;
68993;SDS011;56054;50.968;5.816;2023-01-30T13:15:44;13.60;;;2.03;;
68993;SDS011;56054;50.968;5.816;2023-01-30T13:19:56;18.40;;;2.00;;
68993;SDS011;56054;50.968;5.816;2023-01-30T13:23:19;11.80;;;1.73;;
68993;SDS011;56054;50.968;5.816;2023-01-30T13:26:36;9.83;;;2.03;;
68993;SDS011;56054;50.968;5.816;2023-01-30T13:29:44;15.17;;;2.43;;
68993;SDS011;56054;50.968;5.816;2023-01-30T13:32:57;12.53;;;1.60;;
68993;SDS011;56054;50.968;5.816;2023-01-30T13:36:14;18.23;;;2.20;;
68993;SDS011;56054;50.968;5.816;2023-01-30T13:43:05;12.97;;;1.40;;
68993;SDS011;56054;50.968;5.816;2023-01-30T13:46:34;12.93;;;1.67;;
68993;SDS011;56054;50.968;5.816;2023-01-30T13:49:55;12.47;;;2.07;;
68993;SDS011;56054;50.968;5.816;2023-01-30T14:03:32;16.87;;;2.00;;
68993;SDS011;56054;50.968;5.816;2023-01-30T14:06:42;15.70;;;1.83;;
68993;SDS011;56054;50.968;5.816;2023-01-30T14:13:14;14.90;;;2.10;;
68993;SDS011;56054;50.968;5.816;2023-01-30T14:16:22;16.20;;;1.90;;
68993;SDS011;56054;50.968;5.816;2023-01-30T14:19:56;17.63;;;1.83;;
68993;SDS011;56054;50.968;5.816;2023-01-30T14:29:55;17.53;;;2.47;;
68993;SDS011;56054;50.968;5.816;2023-01-30T14:33:48;16.20;;;2.17;;
68993;SDS011;56054;50.968;5.816;2023-01-30T14:36:34;13.40;;;2.30;;
68993;SDS011;56054;50.968;5.816;2023-01-30T14:39:43;14.87;;;2.10;;
68993;SDS011;56054;50.968;5.816;2023-01-30T14:46:40;14.83;;;2.70;;
68993;SDS011;56054;50.968;5.816;2023-01-30T14:49:48;14.77;;;2.60;;
68993;SDS011;56054;50.968;5.816;2023-01-30T14:52:55;19.37;;;1.93;;
68993;SDS011;56054;50.968;5.816;2023-01-30T14:56:02;24.00;;;3.07;;
68993;SDS011;56054;50.968;5.816;2023-01-30T15:02:27;14.23;;;1.87;;
68993;SDS011;56054;50.968;5.816;2023-01-30T15:05:38;18.10;;;2.37;;
68993;SDS011;56054;50.968;5.816;2023-01-30T15:08:49;19.60;;;2.27;;
68993;SDS011;56054;50.968;5.816;2023-01-30T15:22:29;15.17;;;2.40;;
68993;SDS011;56054;50.968;5.816;2023-01-30T15:33:15;10.73;;;2.03;;
68993;SDS011;56054;50.968;5.816;2023-01-30T15:39:36;9.90;;;1.77;;
68993;SDS011;56054;50.968;5.816;2023-01-30T15:53:00;14.40;;;2.50;;
68993;SDS011;56054;50.968;5.816;2023-01-30T15:56:08;13.83;;;1.77;;
68993;SDS011;56054;50.968;5.816;2023-01-30T15:59:26;14.70;;;2.40;;
68993;SDS011;56054;50.968;5.816;2023-01-30T16:02:42;18.33;;;2.53;;
68993;SDS011;56054;50.968;5.816;2023-01-30T16:05:53;9.33;;;2.00;;
68993;SDS011;56054;50.968;5.816;2023-01-30T16:09:17;12.67;;;2.10;;
68993;SDS011;56054;50.968;5.816;2023-01-30T16:12:26;13.30;;;2.33;;
68993;SDS011;56054;50.968;5.816;2023-01-30T16:15:37;18.90;;;2.67;;
68993;SDS011;56054;50.968;5.816;2023-01-30T16:18:59;18.43;;;2.33;;
68993;SDS011;56054;50.968;5.816;2023-01-30T16:22:17;22.30;;;2.30;;
68993;SDS011;56054;50.968;5.816;2023-01-30T16:25:32;19.47;;;1.83;;
68993;SDS011;56054;50.968;5.816;2023-01-30T16:28:48;15.70;;;1.83;;
68993;SDS011;56054;50.968;5.816;2023-01-30T16:32:05;15.87;;;2.50;;
68993;SDS011;56054;50.968;5.816;2023-01-30T16:35:26;19.20;;;3.07;;
68993;SDS011;56054;50.968;5.816;2023-01-30T16:38:42;22.30;;;3.20;;
68993;SDS011;56054;50.968;5.816;2023-01-30T16:41:54;15.17;;;2.13;;
68993;SDS011;56054;50.968;5.816;2023-01-30T16:48:33;17.60;;;1.73;;
68993;SDS011;56054;50.968;5.816;2023-01-30T16:51:42;18.13;;;2.97;;
68993;SDS011;56054;50.968;5.816;2023-01-30T16:54:58;12.40;;;2.60;;
68993;SDS011;56054;50.968;5.816;2023-01-30T16:58:11;16.53;;;2.30;;
68993;SDS011;56054;50.968;5.816;2023-01-30T17:01:38;13.70;;;2.40;;
68993;SDS011;56054;50.968;5.816;2023-01-30T17:04:53;12.93;;;2.10;;
68993;SDS011;56054;50.968;5.816;2023-01-30T17:12:41;12.37;;;2.40;;
68993;SDS011;56054;50.968;5.816;2023-01-30T17:19:46;24.63;;;2.93;;
68993;SDS011;56054;50.968;5.816;2023-01-30T17:23:02;11.20;;;2.70;;
68993;SDS011;56054;50.968;5.816;2023-01-30T17:26:15;21.07;;;2.37;;
68993;SDS011;56054;50.968;5.816;2023-01-30T17:29:32;16.13;;;2.63;;
68993;SDS011;56054;50.968;5.816;2023-01-30T17:32:52;12.13;;;2.37;;
68993;SDS011;56054;50.968;5.816;2023-01-30T17:36:04;20.57;;;2.87;;
68993;SDS011;56054;50.968;5.816;2023-01-30T17:39:17;17.73;;;2.50;;
68993;SDS011;56054;50.968;5.816;2023-01-30T17:42:33;18.73;;;2.00;;
68993;SDS011;56054;50.968;5.816;2023-01-30T17:45:40;27.37;;;2.63;;
68993;SDS011;56054;50.968;5.816;2023-01-30T17:48:47;15.87;;;2.37;;
68993;SDS011;56054;50.968;5.816;2023-01-30T17:51:54;16.00;;;2.60;;
68993;SDS011;56054;50.968;5.816;2023-01-30T17:55:03;28.27;;;3.33;;
68993;SDS011;56054;50.968;5.816;2023-01-30T17:58:37;20.57;;;3.73;;
68993;SDS011;56054;50.968;5.816;2023-01-30T18:01:48;15.67;;;2.40;;
68993;SDS011;56054;50.968;5.816;2023-01-30T18:04:57;16.23;;;2.90;;
68993;SDS011;56054;50.968;5.816;2023-01-30T18:08:08;17.73;;;2.70;;
68993;SDS011;56054;50.968;5.816;2023-01-30T18:11:15;17.60;;;2.20;;
68993;SDS011;56054;50.968;5.816;2023-01-30T18:14:29;11.03;;;2.27;;
68993;SDS011;56054;50.968;5.816;2023-01-30T18:17:39;14.93;;;2.87;;
68993;SDS011;56054;50.968;5.816;2023-01-30T18:20:48;15.97;;;2.77;;
68993;SDS011;56054;50.968;5.816;2023-01-30T18:23:56;15.90;;;2.57;;
68993;SDS011;56054;50.968;5.816;2023-01-30T18:27:02;16.57;;;2.97;;
68993;SDS011;56054;50.968;5.816;2023-01-30T18:30:13;19.63;;;2.77;;
68993;SDS011;56054;50.968;5.816;2023-01-30T18:33:25;19.60;;;2.30;;
68993;SDS011;56054;50.968;5.816;2023-01-30T18:36:38;16.13;;;3.10;;
68993;SDS011;56054;50.968;5.816;2023-01-30T18:39:44;21.57;;;3.13;;
68993;SDS011;56054;50.968;5.816;2023-01-30T18:42:53;19.47;;;3.67;;
68993;SDS011;56054;50.968;5.816;2023-01-30T18:46:04;14.53;;;2.73;;
68993;SDS011;56054;50.968;5.816;2023-01-30T18:49:15;11.83;;;2.70;;
68993;SDS011;56054;50.968;5.816;2023-01-30T18:52:23;13.30;;;3.30;;
68993;SDS011;56054;50.968;5.816;2023-01-30T18:55:30;13.27;;;2.20;;
68993;SDS011;56054;50.968;5.816;2023-01-30T18:58:36;19.57;;;3.87;;
68993;SDS011;56054;50.968;5.816;2023-01-30T19:01:43;20.10;;;4.20;;
68993;SDS011;56054;50.968;5.816;2023-01-30T19:05:02;20.30;;;5.57;;
68993;SDS011;56054;50.968;5.816;2023-01-30T19:08:08;17.60;;;4.53;;
68993;SDS011;56054;50.968;5.816;2023-01-30T19:11:18;18.87;;;4.20;;
68993;SDS011;56054;50.968;5.816;2023-01-30T19:14:52;24.33;;;3.50;;
68993;SDS011;56054;50.968;5.816;2023-01-30T19:18:09;16.83;;;3.40;;
68993;SDS011;56054;50.968;5.816;2023-01-30T19:21:18;20.73;;;3.67;;
68993;SDS011;56054;50.968;5.816;2023-01-30T19:24:24;21.83;;;4.10;;
68993;SDS011;56054;50.968;5.816;2023-01-30T19:27:47;13.17;;;3.00;;
68993;SDS011;56054;50.968;5.816;2023-01-30T19:30:57;18.17;;;3.13;;
68993;SDS011;56054;50.968;5.816;2023-01-30T19:34:04;26.63;;;3.33;;
68993;SDS011;56054;50.968;5.816;2023-01-30T19:37:11;26.00;;;3.30;;
68993;SDS011;56054;50.968;5.816;2023-01-30T19:40:22;20.13;;;3.63;;
68993;SDS011;56054;50.968;5.816;2023-01-30T19:43:29;12.57;;;2.40;;
68993;SDS011;56054;50.968;5.816;2023-01-30T19:46:36;22.23;;;3.00;;
68993;SDS011;56054;50.968;5.816;2023-01-30T19:49:53;18.40;;;2.27;;
68993;SDS011;56054;50.968;5.816;2023-01-30T19:52:59;14.73;;;3.13;;
68993;SDS011;56054;50.968;5.816;2023-01-30T19:56:07;23.87;;;3.30;;
68993;SDS011;56054;50.968;5.816;2023-01-30T19:59:23;19.50;;;3.03;;
68993;SDS011;56054;50.968;5.816;2023-01-30T20:02:30;17.53;;;2.60;;
68993;SDS011;56054;50.968;5.816;2023-01-30T20:09:20;17.13;;;2.73;;
68993;SDS011;56054;50.968;5.816;2023-01-30T20:12:27;18.17;;;2.53;;
68993;SDS011;56054;50.968;5.816;2023-01-30T20:19:19;30.47;;;4.90;;
68993;SDS011;56054;50.968;5.816;2023-01-30T20:22:26;15.37;;;2.30;;
68993;SDS011;56054;50.968;5.816;2023-01-30T20:25:43;19.50;;;3.53;;
68993;SDS011;56054;50.968;5.816;2023-01-30T20:28:58;24.20;;;3.17;;
68993;SDS011;56054;50.968;5.816;2023-01-30T20:32:07;15.03;;;2.93;;
68993;SDS011;56054;50.968;5.816;2023-01-30T20:35:39;11.47;;;3.00;;
68993;SDS011;56054;50.968;5.816;2023-01-30T20:38:47;24.77;;;3.40;;
68993;SDS011;56054;50.968;5.816;2023-01-30T20:41:54;22.93;;;2.97;;
68993;SDS011;56054;50.968;5.816;2023-01-30T20:45:03;13.80;;;2.67;;
68993;SDS011;56054;50.968;5.816;2023-01-30T20:48:10;19.43;;;4.23;;
68993;SDS011;56054;50.968;5.816;2023-01-30T20:51:28;21.60;;;4.33;;
68993;SDS011;56054;50.968;5.816;2023-01-30T20:54:43;23.37;;;5.07;;
68993;SDS011;56054;50.968;5.816;2023-01-30T20:57:52;16.40;;;3.30;;
68993;SDS011;56054;50.968;5.816;2023-01-30T21:01:08;26.57;;;5.03;;
68993;SDS011;56054;50.968;5.816;2023-01-30T21:04:21;19.93;;;3.67;;
68993;SDS011;56054;50.968;5.816;2023-01-30T21:07:30;23.40;;;3.07;;
68993;SDS011;56054;50.968;5.816;2023-01-30T21:10:37;17.10;;;3.43;;
68993;SDS011;56054;50.968;5.816;2023-01-30T21:13:45;18.63;;;3.40;;
68993;SDS011;56054;50.968;5.816;2023-01-30T21:16:55;21.53;;;2.83;;
68993;SDS011;56054;50.968;5.816;2023-01-30T21:20:01;22.90;;;2.90;;
68993;SDS011;56054;50.968;5.816;2023-01-30T21:23:13;23.13;;;2.87;;
68993;SDS011;56054;50.968;5.816;2023-01-30T21:26:24;29.37;;;4.10;;
68993;SDS011;56054;50.968;5.816;2023-01-30T21:29:33;17.20;;;4.70;;
68993;SDS011;56054;50.968;5.816;2023-01-30T21:32:40;17.67;;;3.07;;
68993;SDS011;56054;50.968;5.816;2023-01-30T21:35:52;15.17;;;2.93;;
68993;SDS011;56054;50.968;5.816;2023-01-30T21:39:25;20.53;;;3.23;;
68993;SDS011;56054;50.968;5.816;2023-01-30T21:42:32;15.73;;;3.33;;
68993;SDS011;56054;50.968;5.816;2023-01-30T21:45:59;22.23;;;2.83;;
68993;SDS011;56054;50.968;5.816;2023-01-30T21:49:07;19.23;;;2.93;;
68993;SDS011;56054;50.968;5.816;2023-01-30T21:52:14;9.27;;;2.43;;
68993;SDS011;56054;50.968;5.816;2023-01-30T21:55:27;21.37;;;3.07;;
68993;SDS011;56054;50.968;5.816;2023-01-30T21:58:43;16.90;;;2.60;;
68993;SDS011;56054;50.968;5.816;2023-01-30T22:01:58;13.43;;;2.80;;
68993;SDS011;56054;50.968;5.816;2023-01-30T22:05:19;12.73;;;2.57;;
68993;SDS011;56054;50.968;5.816;2023-01-30T22:08:25;9.37;;;2.50;;
68993;SDS011;56054;50.968;5.816;2023-01-30T22:11:58;22.50;;;3.33;;
68993;SDS011;56054;50.968;5.816;2023-01-30T22:15:07;16.27;;;2.70;;
68993;SDS011;56054;50.968;5.816;2023-01-30T22:18:27;18.63;;;3.27;;
68993;SDS011;56054;50.968;5.816;2023-01-30T22:21:35;15.57;;;3.07;;
68993;SDS011;56054;50.968;5.816;2023-01-30T22:24:54;12.23;;;2.17;;
68993;SDS011;56054;50.968;5.816;2023-01-30T22:28:13;22.50;;;2.47;;
68993;SDS011;56054;50.968;5.816;2023-01-30T22:31:45;12.47;;;2.53;;
68993;SDS011;56054;50.968;5.816;2023-01-30T22:35:18;17.30;;;3.47;;
68993;SDS011;56054;50.968;5.816;2023-01-30T22:38:42;23.70;;;2.93;;
68993;SDS011;56054;50.968;5.816;2023-01-30T22:42:13;22.57;;;3.13;;
68993;SDS011;56054;50.968;5.816;2023-01-30T22:45:45;16.97;;;2.90;;
68993;SDS011;56054;50.968;5.816;2023-01-30T22:48:58;17.13;;;2.60;;
68993;SDS011;56054;50.968;5.816;2023-01-30T22:52:05;12.67;;;3.13;;
68993;SDS011;56054;50.968;5.816;2023-01-30T22:55:38;25.67;;;2.60;;
68993;SDS011;56054;50.968;5.816;2023-01-30T22:58:46;22.73;;;2.67;;
68993;SDS011;56054;50.968;5.816;2023-01-30T23:26:31;17.20;;;2.87;;
68993;SDS011;56054;50.968;5.816;2023-01-30T23:33:28;16.27;;;2.77;;
68993;SDS011;56054;50.968;5.816;2023-01-30T23:40:06;13.13;;;2.53;;
68993;SDS011;56054;50.968;5.816;2023-01-30T23:43:17;24.53;;;3.37;;
68993;SDS011;56054;50.968;5.816;2023-01-30T23:46:27;15.03;;;3.03;;
68993;SDS011;56054;50.968;5.816;2023-01-30T23:49:35;16.87;;;2.73;;
68993;SDS011;56054;50.968;5.816;2023-01-30T23:52:44;15.00;;;3.13;;
68993;SDS011;56054;50.968;5.816;2023-01-30T23:55:51;12.87;;;2.73;;
68993;SDS011;56054;50.968;5.816;2023-01-30T23:58:58;13.77;;;2.40;;
